sensor_id;sensor_type;location;lat;lon;timestamp;P1;durP1;ratioP1;P2;durP2;ratioP2
4186;SDS011;2107;52.306;10.484;2023-04-25T00:02:10;0.70;;;0.70;;
4186;SDS011;2107;52.306;10.484;2023-04-25T00:04:37;0.77;;;0.77;;
4186;SDS011;2107;52.306;10.484;2023-04-25T00:07:04;0.70;;;0.70;;
4186;SDS011;2107;52.306;10.484;2023-04-25T00:09:31;0.70;;;0.70;;
4186;SDS011;2107;52.306;10.484;2023-04-25T00:12:00;0.70;;;0.70;;
4186;SDS011;2107;52.306;10.484;2023-04-25T00:14:27;0.70;;;0.70;;
4186;SDS011;2107;52.306;10.484;2023-04-25T00:16:54;0.60;;;0.60;;
4186;SDS011;2107;52.306;10.484;2023-04-25T00:19:21;0.30;;;0.30;;
4186;SDS011;2107;52.306;10.484;2023-04-25T00:21:48;0.60;;;0.60;;
4186;SDS011;2107;52.306;10.484;2023-04-25T00:24:15;0.60;;;0.60;;
4186;SDS011;2107;52.306;10.484;2023-04-25T00:26:41;0.60;;;0.60;;
4186;SDS011;2107;52.306;10.484;2023-04-25T00:29:10;0.60;;;0.60;;
4186;SDS011;2107;52.306;10.484;2023-04-25T00:31:36;0.70;;;0.70;;
4186;SDS011;2107;52.306;10.484;2023-04-25T00:34:03;0.60;;;0.60;;
4186;SDS011;2107;52.306;10.484;2023-04-25T00:36:33;0.50;;;0.50;;
4186;SDS011;2107;52.306;10.484;2023-04-25T00:39:00;0.60;;;0.60;;
4186;SDS011;2107;52.306;10.484;2023-04-25T00:41:27;0.40;;;0.40;;
4186;SDS011;2107;52.306;10.484;2023-04-25T00:43:55;0.50;;;0.50;;
4186;SDS011;2107;52.306;10.484;2023-04-25T00:46:24;0.40;;;0.40;;
4186;SDS011;2107;52.306;10.484;2023-04-25T00:48:51;0.50;;;0.50;;
4186;SDS011;2107;52.306;10.484;2023-04-25T00:51:19;0.43;;;0.43;;
4186;SDS011;2107;52.306;10.484;2023-04-25T00:53:47;0.50;;;0.50;;
4186;SDS011;2107;52.306;10.484;2023-04-25T00:56:15;0.70;;;0.70;;
4186;SDS011;2107;52.306;10.484;2023-04-25T00:58:42;0.60;;;0.60;;
4186;SDS011;2107;52.306;10.484;2023-04-25T01:01:10;0.50;;;0.50;;
4186;SDS011;2107;52.306;10.484;2023-04-25T01:03:39;0.60;;;0.60;;
4186;SDS011;2107;52.306;10.484;2023-04-25T01:06:07;0.70;;;0.70;;
4186;SDS011;2107;52.306;10.484;2023-04-25T01:08:35;0.67;;;0.67;;
4186;SDS011;2107;52.306;10.484;2023-04-25T01:11:03;0.70;;;0.70;;
4186;SDS011;2107;52.306;10.484;2023-04-25T01:13:30;0.80;;;0.80;;
4186;SDS011;2107;52.306;10.484;2023-04-25T01:15:57;0.60;;;0.60;;
4186;SDS011;2107;52.306;10.484;2023-04-25T01:18:24;0.67;;;0.67;;
4186;SDS011;2107;52.306;10.484;2023-04-25T01:20:53;0.60;;;0.60;;
4186;SDS011;2107;52.306;10.484;2023-04-25T01:23:22;0.70;;;0.70;;
4186;SDS011;2107;52.306;10.484;2023-04-25T01:25:49;0.60;;;0.60;;
4186;SDS011;2107;52.306;10.484;2023-04-25T01:28:17;0.60;;;0.60;;
4186;SDS011;2107;52.306;10.484;2023-04-25T01:30:44;0.40;;;0.40;;
4186;SDS011;2107;52.306;10.484;2023-04-25T01:33:12;0.50;;;0.50;;
4186;SDS011;2107;52.306;10.484;2023-04-25T01:35:41;0.70;;;0.70;;
4186;SDS011;2107;52.306;10.484;2023-04-25T01:38:08;0.60;;;0.60;;
4186;SDS011;2107;52.306;10.484;2023-04-25T01:40:38;0.40;;;0.40;;
4186;SDS011;2107;52.306;10.484;2023-04-25T01:43:06;0.40;;;0.40;;
4186;SDS011;2107;52.306;10.484;2023-04-25T01:45:36;0.40;;;0.40;;
4186;SDS011;2107;52.306;10.484;2023-04-25T01:48:04;0.60;;;0.60;;
4186;SDS011;2107;52.306;10.484;2023-04-25T01:50:31;0.50;;;0.50;;
4186;SDS011;2107;52.306;10.484;2023-04-25T01:52:58;0.40;;;0.40;;
4186;SDS011;2107;52.306;10.484;2023-04-25T01:55:26;0.50;;;0.50;;
4186;SDS011;2107;52.306;10.484;2023-04-25T01:57:54;0.50;;;0.50;;
4186;SDS011;2107;52.306;10.484;2023-04-25T02:00:21;0.50;;;0.50;;
4186;SDS011;2107;52.306;10.484;2023-04-25T02:02:48;0.53;;;0.53;;
4186;SDS011;2107;52.306;10.484;2023-04-25T02:05:15;0.50;;;0.50;;
4186;SDS011;2107;52.306;10.484;2023-04-25T02:07:43;0.50;;;0.50;;
4186;SDS011;2107;52.306;10.484;2023-04-25T02:10:10;0.40;;;0.40;;
4186;SDS011;2107;52.306;10.484;2023-04-25T02:12:37;0.60;;;0.60;;
4186;SDS011;2107;52.306;10.484;2023-04-25T02:15:06;0.50;;;0.50;;
4186;SDS011;2107;52.306;10.484;2023-04-25T02:17:33;0.50;;;0.50;;
4186;SDS011;2107;52.306;10.484;2023-04-25T02:20:00;0.50;;;0.50;;
4186;SDS011;2107;52.306;10.484;2023-04-25T02:22:27;0.40;;;0.40;;
4186;SDS011;2107;52.306;10.484;2023-04-25T02:24:55;0.60;;;0.60;;
4186;SDS011;2107;52.306;10.484;2023-04-25T02:27:22;0.50;;;0.50;;
4186;SDS011;2107;52.306;10.484;2023-04-25T02:29:49;0.60;;;0.60;;
4186;SDS011;2107;52.306;10.484;2023-04-25T02:32:17;0.50;;;0.50;;
4186;SDS011;2107;52.306;10.484;2023-04-25T02:34:44;0.60;;;0.60;;
4186;SDS011;2107;52.306;10.484;2023-04-25T02:37:10;0.60;;;0.60;;
4186;SDS011;2107;52.306;10.484;2023-04-25T02:39:38;0.40;;;0.40;;
4186;SDS011;2107;52.306;10.484;2023-04-25T02:42:05;0.50;;;0.50;;
4186;SDS011;2107;52.306;10.484;2023-04-25T02:44:32;0.40;;;0.40;;
4186;SDS011;2107;52.306;10.484;2023-04-25T02:46:59;0.70;;;0.70;;
4186;SDS011;2107;52.306;10.484;2023-04-25T02:49:27;0.50;;;0.50;;
4186;SDS011;2107;52.306;10.484;2023-04-25T02:51:54;0.70;;;0.70;;
4186;SDS011;2107;52.306;10.484;2023-04-25T02:54:20;0.40;;;0.40;;
4186;SDS011;2107;52.306;10.484;2023-04-25T02:56:47;0.40;;;0.40;;
4186;SDS011;2107;52.306;10.484;2023-04-25T02:59:14;0.40;;;0.40;;
4186;SDS011;2107;52.306;10.484;2023-04-25T03:01:41;0.60;;;0.60;;
4186;SDS011;2107;52.306;10.484;2023-04-25T03:04:08;0.67;;;0.67;;
4186;SDS011;2107;52.306;10.484;2023-04-25T03:06:36;0.50;;;0.50;;
4186;SDS011;2107;52.306;10.484;2023-04-25T03:09:03;0.30;;;0.30;;
4186;SDS011;2107;52.306;10.484;2023-04-25T03:11:30;0.40;;;0.40;;
4186;SDS011;2107;52.306;10.484;2023-04-25T03:13:57;0.30;;;0.30;;
4186;SDS011;2107;52.306;10.484;2023-04-25T03:16:24;0.37;;;0.37;;
4186;SDS011;2107;52.306;10.484;2023-04-25T03:18:51;0.40;;;0.40;;
4186;SDS011;2107;52.306;10.484;2023-04-25T03:21:17;0.63;;;0.63;;
4186;SDS011;2107;52.306;10.484;2023-04-25T03:23:46;0.70;;;0.70;;
4186;SDS011;2107;52.306;10.484;2023-04-25T03:26:12;0.70;;;0.70;;
4186;SDS011;2107;52.306;10.484;2023-04-25T03:28:39;0.60;;;0.60;;
4186;SDS011;2107;52.306;10.484;2023-04-25T03:31:06;0.83;;;0.83;;
4186;SDS011;2107;52.306;10.484;2023-04-25T03:33:33;1.20;;;1.20;;
4186;SDS011;2107;52.306;10.484;2023-04-25T03:36:00;1.70;;;1.70;;
4186;SDS011;2107;52.306;10.484;2023-04-25T03:38:27;1.90;;;1.90;;
4186;SDS011;2107;52.306;10.484;2023-04-25T03:40:55;1.60;;;1.60;;
4186;SDS011;2107;52.306;10.484;2023-04-25T03:43:22;1.40;;;1.40;;
4186;SDS011;2107;52.306;10.484;2023-04-25T03:45:49;1.20;;;1.20;;
4186;SDS011;2107;52.306;10.484;2023-04-25T03:48:16;1.40;;;1.40;;
4186;SDS011;2107;52.306;10.484;2023-04-25T03:50:42;1.57;;;1.57;;
4186;SDS011;2107;52.306;10.484;2023-04-25T03:53:09;1.30;;;1.30;;
4186;SDS011;2107;52.306;10.484;2023-04-25T03:55:36;1.17;;;1.17;;
4186;SDS011;2107;52.306;10.484;2023-04-25T03:58:04;1.20;;;1.20;;
4186;SDS011;2107;52.306;10.484;2023-04-25T04:00:33;1.10;;;1.10;;
4186;SDS011;2107;52.306;10.484;2023-04-25T04:03:00;1.30;;;1.30;;
4186;SDS011;2107;52.306;10.484;2023-04-25T04:05:27;1.10;;;1.10;;
4186;SDS011;2107;52.306;10.484;2023-04-25T04:07:54;1.30;;;1.30;;
4186;SDS011;2107;52.306;10.484;2023-04-25T04:10:21;1.20;;;1.20;;
4186;SDS011;2107;52.306;10.484;2023-04-25T04:12:48;1.20;;;1.20;;
4186;SDS011;2107;52.306;10.484;2023-04-25T04:15:16;1.37;;;1.37;;
4186;SDS011;2107;52.306;10.484;2023-04-25T04:17:43;1.27;;;1.27;;
4186;SDS011;2107;52.306;10.484;2023-04-25T04:20:10;1.47;;;1.47;;
4186;SDS011;2107;52.306;10.484;2023-04-25T04:22:37;1.40;;;1.40;;
4186;SDS011;2107;52.306;10.484;2023-04-25T04:25:04;1.60;;;1.60;;
4186;SDS011;2107;52.306;10.484;2023-04-25T04:27:32;1.50;;;1.50;;
4186;SDS011;2107;52.306;10.484;2023-04-25T04:29:59;1.70;;;1.70;;
4186;SDS011;2107;52.306;10.484;2023-04-25T04:32:28;1.80;;;1.80;;
4186;SDS011;2107;52.306;10.484;2023-04-25T04:34:55;1.50;;;1.50;;
4186;SDS011;2107;52.306;10.484;2023-04-25T04:37:22;1.60;;;1.60;;
4186;SDS011;2107;52.306;10.484;2023-04-25T04:39:49;1.77;;;1.77;;
4186;SDS011;2107;52.306;10.484;2023-04-25T04:42:16;1.53;;;1.53;;
4186;SDS011;2107;52.306;10.484;2023-04-25T04:44:43;1.50;;;1.50;;
4186;SDS011;2107;52.306;10.484;2023-04-25T04:47:11;1.70;;;1.70;;
4186;SDS011;2107;52.306;10.484;2023-04-25T04:49:41;1.40;;;1.40;;
4186;SDS011;2107;52.306;10.484;2023-04-25T04:52:08;1.60;;;1.60;;
4186;SDS011;2107;52.306;10.484;2023-04-25T04:54:35;1.60;;;1.60;;
4186;SDS011;2107;52.306;10.484;2023-04-25T04:57:02;1.50;;;1.50;;
4186;SDS011;2107;52.306;10.484;2023-04-25T04:59:29;1.90;;;1.90;;
4186;SDS011;2107;52.306;10.484;2023-04-25T05:01:56;1.50;;;1.50;;
4186;SDS011;2107;52.306;10.484;2023-04-25T05:04:22;2.00;;;2.00;;
4186;SDS011;2107;52.306;10.484;2023-04-25T05:06:51;1.90;;;1.90;;
4186;SDS011;2107;52.306;10.484;2023-04-25T05:09:17;2.10;;;2.10;;
4186;SDS011;2107;52.306;10.484;2023-04-25T05:11:45;1.90;;;1.90;;
4186;SDS011;2107;52.306;10.484;2023-04-25T05:14:12;2.40;;;2.40;;
4186;SDS011;2107;52.306;10.484;2023-04-25T05:16:38;2.70;;;2.70;;
4186;SDS011;2107;52.306;10.484;2023-04-25T05:19:05;2.70;;;2.70;;
4186;SDS011;2107;52.306;10.484;2023-04-25T05:21:32;2.80;;;2.80;;
4186;SDS011;2107;52.306;10.484;2023-04-25T05:24:00;2.30;;;2.30;;
4186;SDS011;2107;52.306;10.484;2023-04-25T05:26:27;2.70;;;2.70;;
4186;SDS011;2107;52.306;10.484;2023-04-25T05:28:56;2.90;;;2.90;;
4186;SDS011;2107;52.306;10.484;2023-04-25T05:31:22;3.27;;;3.27;;
4186;SDS011;2107;52.306;10.484;2023-04-25T05:33:49;3.40;;;3.40;;
4186;SDS011;2107;52.306;10.484;2023-04-25T05:36:16;3.10;;;3.10;;
4186;SDS011;2107;52.306;10.484;2023-04-25T05:38:44;3.20;;;3.20;;
4186;SDS011;2107;52.306;10.484;2023-04-25T05:41:12;2.73;;;2.73;;
4186;SDS011;2107;52.306;10.484;2023-04-25T05:43:39;2.90;;;2.90;;
4186;SDS011;2107;52.306;10.484;2023-04-25T05:46:10;3.10;;;3.10;;
4186;SDS011;2107;52.306;10.484;2023-04-25T05:48:37;2.70;;;2.70;;
4186;SDS011;2107;52.306;10.484;2023-04-25T05:51:04;3.30;;;3.30;;
4186;SDS011;2107;52.306;10.484;2023-04-25T05:53:30;3.13;;;3.13;;
4186;SDS011;2107;52.306;10.484;2023-04-25T05:55:57;2.90;;;2.90;;
4186;SDS011;2107;52.306;10.484;2023-04-25T05:58:26;3.00;;;3.00;;
4186;SDS011;2107;52.306;10.484;2023-04-25T06:00:53;2.63;;;2.63;;
4186;SDS011;2107;52.306;10.484;2023-04-25T06:03:20;2.70;;;2.70;;
4186;SDS011;2107;52.306;10.484;2023-04-25T06:05:47;3.00;;;3.00;;
4186;SDS011;2107;52.306;10.484;2023-04-25T06:08:14;2.70;;;2.70;;
4186;SDS011;2107;52.306;10.484;2023-04-25T06:10:41;2.60;;;2.60;;
4186;SDS011;2107;52.306;10.484;2023-04-25T06:13:08;2.20;;;2.20;;
4186;SDS011;2107;52.306;10.484;2023-04-25T06:15:36;2.10;;;2.10;;
4186;SDS011;2107;52.306;10.484;2023-04-25T06:18:03;1.80;;;1.80;;
4186;SDS011;2107;52.306;10.484;2023-04-25T06:20:30;1.50;;;1.50;;
4186;SDS011;2107;52.306;10.484;2023-04-25T06:22:56;1.30;;;1.30;;
4186;SDS011;2107;52.306;10.484;2023-04-25T06:25:23;1.40;;;1.40;;
4186;SDS011;2107;52.306;10.484;2023-04-25T06:27:50;1.20;;;1.20;;
4186;SDS011;2107;52.306;10.484;2023-04-25T06:30:17;1.37;;;1.37;;
4186;SDS011;2107;52.306;10.484;2023-04-25T06:32:51;1.30;;;1.30;;
4186;SDS011;2107;52.306;10.484;2023-04-25T06:35:18;1.00;;;1.00;;
4186;SDS011;2107;52.306;10.484;2023-04-25T06:37:45;1.30;;;1.30;;
4186;SDS011;2107;52.306;10.484;2023-04-25T06:40:12;1.20;;;1.20;;
4186;SDS011;2107;52.306;10.484;2023-04-25T06:42:40;1.10;;;1.10;;
4186;SDS011;2107;52.306;10.484;2023-04-25T06:45:07;1.30;;;1.30;;
4186;SDS011;2107;52.306;10.484;2023-04-25T06:47:34;1.10;;;1.10;;
4186;SDS011;2107;52.306;10.484;2023-04-25T06:50:03;1.00;;;1.00;;
4186;SDS011;2107;52.306;10.484;2023-04-25T06:52:30;0.80;;;0.80;;
4186;SDS011;2107;52.306;10.484;2023-04-25T06:54:57;0.90;;;0.90;;
4186;SDS011;2107;52.306;10.484;2023-04-25T06:57:24;0.90;;;0.90;;
4186;SDS011;2107;52.306;10.484;2023-04-25T06:59:51;1.30;;;1.30;;
4186;SDS011;2107;52.306;10.484;2023-04-25T07:02:18;1.30;;;1.30;;
4186;SDS011;2107;52.306;10.484;2023-04-25T07:04:46;1.50;;;1.50;;
4186;SDS011;2107;52.306;10.484;2023-04-25T07:07:14;1.37;;;1.37;;
4186;SDS011;2107;52.306;10.484;2023-04-25T07:09:42;1.50;;;1.50;;
4186;SDS011;2107;52.306;10.484;2023-04-25T07:12:08;1.27;;;1.27;;
4186;SDS011;2107;52.306;10.484;2023-04-25T07:14:35;1.20;;;1.20;;
4186;SDS011;2107;52.306;10.484;2023-04-25T07:17:02;1.30;;;1.30;;
4186;SDS011;2107;52.306;10.484;2023-04-25T07:19:31;1.30;;;1.30;;
4186;SDS011;2107;52.306;10.484;2023-04-25T07:21:58;1.30;;;1.30;;
4186;SDS011;2107;52.306;10.484;2023-04-25T07:24:26;1.20;;;1.20;;
4186;SDS011;2107;52.306;10.484;2023-04-25T07:26:53;1.10;;;1.10;;
4186;SDS011;2107;52.306;10.484;2023-04-25T07:29:20;1.17;;;1.17;;
4186;SDS011;2107;52.306;10.484;2023-04-25T07:31:47;1.40;;;1.40;;
4186;SDS011;2107;52.306;10.484;2023-04-25T07:34:14;1.30;;;1.30;;
4186;SDS011;2107;52.306;10.484;2023-04-25T07:36:40;0.83;;;0.83;;
4186;SDS011;2107;52.306;10.484;2023-04-25T07:39:07;0.90;;;0.90;;
4186;SDS011;2107;52.306;10.484;2023-04-25T07:41:35;0.90;;;0.90;;
4186;SDS011;2107;52.306;10.484;2023-04-25T07:44:02;0.90;;;0.90;;
4186;SDS011;2107;52.306;10.484;2023-04-25T07:46:29;1.57;;;1.57;;
4186;SDS011;2107;52.306;10.484;2023-04-25T07:48:56;1.30;;;1.30;;
4186;SDS011;2107;52.306;10.484;2023-04-25T07:51:23;1.00;;;1.00;;
4186;SDS011;2107;52.306;10.484;2023-04-25T07:53:50;1.10;;;1.10;;
4186;SDS011;2107;52.306;10.484;2023-04-25T07:56:17;1.13;;;1.13;;
4186;SDS011;2107;52.306;10.484;2023-04-25T07:58:46;1.10;;;1.10;;
4186;SDS011;2107;52.306;10.484;2023-04-25T08:01:13;1.10;;;1.10;;
4186;SDS011;2107;52.306;10.484;2023-04-25T08:03:39;1.10;;;1.10;;
4186;SDS011;2107;52.306;10.484;2023-04-25T08:06:06;0.80;;;0.80;;
4186;SDS011;2107;52.306;10.484;2023-04-25T08:08:33;1.30;;;1.30;;
4186;SDS011;2107;52.306;10.484;2023-04-25T08:11:00;1.00;;;1.00;;
4186;SDS011;2107;52.306;10.484;2023-04-25T08:13:27;1.10;;;1.10;;
4186;SDS011;2107;52.306;10.484;2023-04-25T08:15:55;1.00;;;1.00;;
4186;SDS011;2107;52.306;10.484;2023-04-25T08:18:22;1.00;;;1.00;;
4186;SDS011;2107;52.306;10.484;2023-04-25T08:20:49;0.93;;;0.93;;
4186;SDS011;2107;52.306;10.484;2023-04-25T08:23:15;1.03;;;1.03;;
4186;SDS011;2107;52.306;10.484;2023-04-25T08:25:42;1.20;;;1.20;;
4186;SDS011;2107;52.306;10.484;2023-04-25T08:28:09;0.90;;;0.90;;
4186;SDS011;2107;52.306;10.484;2023-04-25T08:30:36;0.90;;;0.90;;
4186;SDS011;2107;52.306;10.484;2023-04-25T08:33:04;1.00;;;1.00;;
4186;SDS011;2107;52.306;10.484;2023-04-25T08:35:31;0.90;;;0.90;;
4186;SDS011;2107;52.306;10.484;2023-04-25T08:37:59;1.00;;;1.00;;
4186;SDS011;2107;52.306;10.484;2023-04-25T08:40:27;0.90;;;0.90;;
4186;SDS011;2107;52.306;10.484;2023-04-25T08:42:55;1.00;;;1.00;;
4186;SDS011;2107;52.306;10.484;2023-04-25T08:45:23;1.00;;;1.00;;
4186;SDS011;2107;52.306;10.484;2023-04-25T08:47:52;1.00;;;1.00;;
4186;SDS011;2107;52.306;10.484;2023-04-25T08:50:23;0.90;;;0.90;;
4186;SDS011;2107;52.306;10.484;2023-04-25T08:52:51;1.10;;;1.10;;
4186;SDS011;2107;52.306;10.484;2023-04-25T08:55:20;1.10;;;1.10;;
4186;SDS011;2107;52.306;10.484;2023-04-25T08:57:47;0.90;;;0.90;;
4186;SDS011;2107;52.306;10.484;2023-04-25T09:00:15;1.10;;;1.10;;
4186;SDS011;2107;52.306;10.484;2023-04-25T09:02:44;1.20;;;1.20;;
4186;SDS011;2107;52.306;10.484;2023-04-25T09:05:12;1.10;;;1.10;;
4186;SDS011;2107;52.306;10.484;2023-04-25T09:07:41;1.00;;;1.00;;
4186;SDS011;2107;52.306;10.484;2023-04-25T09:10:08;1.10;;;1.10;;
4186;SDS011;2107;52.306;10.484;2023-04-25T09:12:35;1.00;;;1.00;;
4186;SDS011;2107;52.306;10.484;2023-04-25T09:15:03;1.03;;;1.03;;
4186;SDS011;2107;52.306;10.484;2023-04-25T09:17:32;1.20;;;1.20;;
4186;SDS011;2107;52.306;10.484;2023-04-25T09:20:05;1.10;;;1.10;;
4186;SDS011;2107;52.306;10.484;2023-04-25T09:22:34;1.20;;;1.20;;
4186;SDS011;2107;52.306;10.484;2023-04-25T09:25:03;1.00;;;1.00;;
4186;SDS011;2107;52.306;10.484;2023-04-25T09:27:34;1.10;;;1.10;;
4186;SDS011;2107;52.306;10.484;2023-04-25T09:30:01;1.00;;;1.00;;
4186;SDS011;2107;52.306;10.484;2023-04-25T09:32:29;1.27;;;1.27;;
4186;SDS011;2107;52.306;10.484;2023-04-25T09:34:57;1.10;;;1.10;;
4186;SDS011;2107;52.306;10.484;2023-04-25T09:37:26;1.27;;;1.27;;
4186;SDS011;2107;52.306;10.484;2023-04-25T09:39:54;1.30;;;1.30;;
4186;SDS011;2107;52.306;10.484;2023-04-25T09:42:26;1.00;;;1.00;;
4186;SDS011;2107;52.306;10.484;2023-04-25T09:44:54;1.00;;;1.00;;
4186;SDS011;2107;52.306;10.484;2023-04-25T09:47:22;1.10;;;1.10;;
4186;SDS011;2107;52.306;10.484;2023-04-25T09:49:50;0.80;;;0.80;;
4186;SDS011;2107;52.306;10.484;2023-04-25T09:52:18;1.00;;;1.00;;
4186;SDS011;2107;52.306;10.484;2023-04-25T09:54:47;1.00;;;1.00;;
4186;SDS011;2107;52.306;10.484;2023-04-25T09:57:15;0.93;;;0.93;;
4186;SDS011;2107;52.306;10.484;2023-04-25T09:59:44;1.20;;;1.20;;
4186;SDS011;2107;52.306;10.484;2023-04-25T10:02:12;1.10;;;1.10;;
4186;SDS011;2107;52.306;10.484;2023-04-25T10:04:40;1.30;;;1.30;;
4186;SDS011;2107;52.306;10.484;2023-04-25T10:07:08;1.23;;;1.23;;
4186;SDS011;2107;52.306;10.484;2023-04-25T10:09:36;1.20;;;1.20;;
4186;SDS011;2107;52.306;10.484;2023-04-25T10:12:04;1.37;;;1.37;;
4186;SDS011;2107;52.306;10.484;2023-04-25T10:14:32;1.10;;;1.10;;
4186;SDS011;2107;52.306;10.484;2023-04-25T10:17:00;1.10;;;1.10;;
4186;SDS011;2107;52.306;10.484;2023-04-25T10:19:27;1.30;;;1.30;;
4186;SDS011;2107;52.306;10.484;2023-04-25T10:21:55;1.10;;;1.10;;
4186;SDS011;2107;52.306;10.484;2023-04-25T10:24:29;0.90;;;0.90;;
4186;SDS011;2107;52.306;10.484;2023-04-25T10:26:56;0.80;;;0.80;;
4186;SDS011;2107;52.306;10.484;2023-04-25T10:29:24;1.00;;;1.00;;
4186;SDS011;2107;52.306;10.484;2023-04-25T10:31:52;1.10;;;1.10;;
4186;SDS011;2107;52.306;10.484;2023-04-25T10:34:23;1.30;;;1.30;;
4186;SDS011;2107;52.306;10.484;2023-04-25T10:37:03;1.37;;;1.37;;
4186;SDS011;2107;52.306;10.484;2023-04-25T10:39:30;1.10;;;1.10;;
4186;SDS011;2107;52.306;10.484;2023-04-25T10:41:58;1.10;;;1.10;;
4186;SDS011;2107;52.306;10.484;2023-04-25T10:44:29;1.30;;;1.30;;
4186;SDS011;2107;52.306;10.484;2023-04-25T10:46:56;1.10;;;1.10;;
4186;SDS011;2107;52.306;10.484;2023-04-25T10:49:32;1.20;;;1.20;;
4186;SDS011;2107;52.306;10.484;2023-04-25T10:52:18;1.30;;;1.30;;
4186;SDS011;2107;52.306;10.484;2023-04-25T10:54:51;1.30;;;1.30;;
4186;SDS011;2107;52.306;10.484;2023-04-25T10:57:32;1.30;;;1.30;;
4186;SDS011;2107;52.306;10.484;2023-04-25T11:00:07;1.30;;;1.30;;
4186;SDS011;2107;52.306;10.484;2023-04-25T11:02:42;0.90;;;0.90;;
4186;SDS011;2107;52.306;10.484;2023-04-25T11:05:16;1.20;;;1.20;;
4186;SDS011;2107;52.306;10.484;2023-04-25T11:07:52;1.30;;;1.30;;
4186;SDS011;2107;52.306;10.484;2023-04-25T11:10:24;1.00;;;1.00;;
4186;SDS011;2107;52.306;10.484;2023-04-25T11:12:51;0.90;;;0.90;;
4186;SDS011;2107;52.306;10.484;2023-04-25T11:15:18;1.00;;;1.00;;
4186;SDS011;2107;52.306;10.484;2023-04-25T11:17:45;0.90;;;0.90;;
4186;SDS011;2107;52.306;10.484;2023-04-25T11:20:12;0.93;;;0.93;;
4186;SDS011;2107;52.306;10.484;2023-04-25T11:22:41;1.20;;;1.20;;
4186;SDS011;2107;52.306;10.484;2023-04-25T11:25:11;1.30;;;1.30;;
4186;SDS011;2107;52.306;10.484;2023-04-25T11:27:48;1.27;;;1.27;;
4186;SDS011;2107;52.306;10.484;2023-04-25T11:30:16;1.10;;;1.10;;
4186;SDS011;2107;52.306;10.484;2023-04-25T11:32:44;1.60;;;1.60;;
4186;SDS011;2107;52.306;10.484;2023-04-25T11:35:11;1.40;;;1.40;;
4186;SDS011;2107;52.306;10.484;2023-04-25T11:37:38;1.20;;;1.20;;
4186;SDS011;2107;52.306;10.484;2023-04-25T11:40:07;1.50;;;1.50;;
4186;SDS011;2107;52.306;10.484;2023-04-25T11:42:37;1.30;;;1.30;;
4186;SDS011;2107;52.306;10.484;2023-04-25T11:45:05;1.20;;;1.20;;
4186;SDS011;2107;52.306;10.484;2023-04-25T11:47:33;1.00;;;1.00;;
4186;SDS011;2107;52.306;10.484;2023-04-25T11:50:00;0.90;;;0.90;;
4186;SDS011;2107;52.306;10.484;2023-04-25T11:52:37;1.10;;;1.10;;
4186;SDS011;2107;52.306;10.484;2023-04-25T11:55:07;1.00;;;1.00;;
4186;SDS011;2107;52.306;10.484;2023-04-25T11:57:35;0.80;;;0.80;;
4186;SDS011;2107;52.306;10.484;2023-04-25T12:00:08;0.87;;;0.87;;
4186;SDS011;2107;52.306;10.484;2023-04-25T12:02:40;0.80;;;0.80;;
4186;SDS011;2107;52.306;10.484;2023-04-25T12:05:07;0.80;;;0.80;;
4186;SDS011;2107;52.306;10.484;2023-04-25T12:07:35;0.50;;;0.50;;
4186;SDS011;2107;52.306;10.484;2023-04-25T12:10:07;0.60;;;0.60;;
4186;SDS011;2107;52.306;10.484;2023-04-25T12:12:36;0.93;;;0.93;;
4186;SDS011;2107;52.306;10.484;2023-04-25T12:15:11;1.00;;;1.00;;
4186;SDS011;2107;52.306;10.484;2023-04-25T12:17:40;0.90;;;0.90;;
4186;SDS011;2107;52.306;10.484;2023-04-25T12:20:09;1.00;;;1.00;;
4186;SDS011;2107;52.306;10.484;2023-04-25T12:22:37;0.80;;;0.80;;
4186;SDS011;2107;52.306;10.484;2023-04-25T12:25:04;1.20;;;1.20;;
4186;SDS011;2107;52.306;10.484;2023-04-25T12:27:34;0.90;;;0.90;;
4186;SDS011;2107;52.306;10.484;2023-04-25T12:30:02;1.30;;;1.30;;
4186;SDS011;2107;52.306;10.484;2023-04-25T12:32:30;1.30;;;1.30;;
4186;SDS011;2107;52.306;10.484;2023-04-25T12:34:57;1.77;;;1.77;;
4186;SDS011;2107;52.306;10.484;2023-04-25T12:37:23;1.70;;;1.70;;
4186;SDS011;2107;52.306;10.484;2023-04-25T12:39:51;1.23;;;1.23;;
4186;SDS011;2107;52.306;10.484;2023-04-25T12:42:18;1.33;;;1.33;;
4186;SDS011;2107;52.306;10.484;2023-04-25T12:44:46;1.10;;;1.10;;
4186;SDS011;2107;52.306;10.484;2023-04-25T12:47:13;1.30;;;1.30;;
4186;SDS011;2107;52.306;10.484;2023-04-25T12:49:40;1.10;;;1.10;;
4186;SDS011;2107;52.306;10.484;2023-04-25T12:52:07;1.30;;;1.30;;
4186;SDS011;2107;52.306;10.484;2023-04-25T12:54:34;1.10;;;1.10;;
4186;SDS011;2107;52.306;10.484;2023-04-25T12:57:00;1.30;;;1.30;;
4186;SDS011;2107;52.306;10.484;2023-04-25T12:59:28;1.43;;;1.43;;
4186;SDS011;2107;52.306;10.484;2023-04-25T13:01:56;1.30;;;1.30;;
4186;SDS011;2107;52.306;10.484;2023-04-25T13:04:23;1.40;;;1.40;;
4186;SDS011;2107;52.306;10.484;2023-04-25T13:06:50;1.20;;;1.20;;
4186;SDS011;2107;52.306;10.484;2023-04-25T13:09:17;1.43;;;1.43;;
4186;SDS011;2107;52.306;10.484;2023-04-25T13:11:44;1.30;;;1.30;;
4186;SDS011;2107;52.306;10.484;2023-04-25T13:14:11;1.37;;;1.37;;
4186;SDS011;2107;52.306;10.484;2023-04-25T13:16:37;1.10;;;1.10;;
4186;SDS011;2107;52.306;10.484;2023-04-25T13:19:06;0.90;;;0.90;;
4186;SDS011;2107;52.306;10.484;2023-04-25T13:21:36;0.90;;;0.90;;
4186;SDS011;2107;52.306;10.484;2023-04-25T13:24:03;1.00;;;1.00;;
4186;SDS011;2107;52.306;10.484;2023-04-25T13:26:30;0.80;;;0.80;;
4186;SDS011;2107;52.306;10.484;2023-04-25T13:28:57;1.10;;;1.10;;
4186;SDS011;2107;52.306;10.484;2023-04-25T13:31:25;0.90;;;0.90;;
4186;SDS011;2107;52.306;10.484;2023-04-25T13:33:52;0.90;;;0.90;;
4186;SDS011;2107;52.306;10.484;2023-04-25T13:36:20;0.90;;;0.90;;
4186;SDS011;2107;52.306;10.484;2023-04-25T13:38:47;0.80;;;0.80;;
4186;SDS011;2107;52.306;10.484;2023-04-25T13:41:14;1.10;;;1.10;;
4186;SDS011;2107;52.306;10.484;2023-04-25T13:43:44;0.90;;;0.90;;
4186;SDS011;2107;52.306;10.484;2023-04-25T13:46:12;1.10;;;1.10;;
4186;SDS011;2107;52.306;10.484;2023-04-25T13:48:40;0.80;;;0.80;;
4186;SDS011;2107;52.306;10.484;2023-04-25T13:51:11;1.10;;;1.10;;
4186;SDS011;2107;52.306;10.484;2023-04-25T13:53:41;1.07;;;1.07;;
4186;SDS011;2107;52.306;10.484;2023-04-25T13:56:07;0.70;;;0.70;;
4186;SDS011;2107;52.306;10.484;2023-04-25T13:58:36;0.60;;;0.60;;
4186;SDS011;2107;52.306;10.484;2023-04-25T14:01:02;0.70;;;0.70;;
4186;SDS011;2107;52.306;10.484;2023-04-25T14:03:30;1.10;;;1.10;;
4186;SDS011;2107;52.306;10.484;2023-04-25T14:05:57;1.30;;;1.30;;
4186;SDS011;2107;52.306;10.484;2023-04-25T14:08:23;1.30;;;1.30;;
4186;SDS011;2107;52.306;10.484;2023-04-25T14:10:52;1.37;;;1.37;;
4186;SDS011;2107;52.306;10.484;2023-04-25T14:13:18;1.20;;;1.20;;
4186;SDS011;2107;52.306;10.484;2023-04-25T14:15:45;1.20;;;1.20;;
4186;SDS011;2107;52.306;10.484;2023-04-25T14:18:12;1.00;;;1.00;;
4186;SDS011;2107;52.306;10.484;2023-04-25T14:20:39;1.30;;;1.30;;
4186;SDS011;2107;52.306;10.484;2023-04-25T14:23:06;1.40;;;1.40;;
4186;SDS011;2107;52.306;10.484;2023-04-25T14:25:33;1.20;;;1.20;;
4186;SDS011;2107;52.306;10.484;2023-04-25T14:28:02;1.10;;;1.10;;
4186;SDS011;2107;52.306;10.484;2023-04-25T14:30:29;1.20;;;1.20;;
4186;SDS011;2107;52.306;10.484;2023-04-25T14:32:56;1.30;;;1.30;;
4186;SDS011;2107;52.306;10.484;2023-04-25T14:35:23;1.10;;;1.10;;
4186;SDS011;2107;52.306;10.484;2023-04-25T14:37:50;1.30;;;1.30;;
4186;SDS011;2107;52.306;10.484;2023-04-25T14:40:17;1.20;;;1.20;;
4186;SDS011;2107;52.306;10.484;2023-04-25T14:42:47;1.20;;;1.20;;
4186;SDS011;2107;52.306;10.484;2023-04-25T14:45:15;1.40;;;1.40;;
4186;SDS011;2107;52.306;10.484;2023-04-25T14:47:42;1.10;;;1.10;;
4186;SDS011;2107;52.306;10.484;2023-04-25T14:50:10;1.30;;;1.30;;
4186;SDS011;2107;52.306;10.484;2023-04-25T14:52:36;1.37;;;1.37;;
4186;SDS011;2107;52.306;10.484;2023-04-25T14:55:03;1.40;;;1.40;;
4186;SDS011;2107;52.306;10.484;2023-04-25T14:57:30;2.00;;;2.00;;
4186;SDS011;2107;52.306;10.484;2023-04-25T14:59:57;1.60;;;1.60;;
4186;SDS011;2107;52.306;10.484;2023-04-25T15:02:26;1.60;;;1.60;;
4186;SDS011;2107;52.306;10.484;2023-04-25T15:04:53;1.40;;;1.40;;